sensor_id;sensor_type;location;lat;lon;timestamp;pressure;altitude;pressure_sealevel;temperature;humidity
73316;BME280;61545;53.726;-0.444;2022-10-16T00:04:43;996.3;;;9.7;83.5
73316;BME280;61545;53.726;-0.444;2022-10-16T00:09:43;996.2;;;9.7;83.4
73316;BME280;61545;53.726;-0.444;2022-10-16T00:14:43;996.1;;;9.7;83.1
73316;BME280;61545;53.726;-0.444;2022-10-16T00:19:43;996.2;;;9.7;82.7
73316;BME280;61545;53.726;-0.444;2022-10-16T00:24:43;996.1;;;9.7;82.4
73316;BME280;61545;53.726;-0.444;2022-10-16T00:29:43;996.2;;;9.6;82.3
73316;BME280;61545;53.726;-0.444;2022-10-16T00:34:43;996.2;;;9.6;82.4
73316;BME280;61545;53.726;-0.444;2022-10-16T00:39:43;996.3;;;9.7;82.4
73316;BME280;61545;53.726;-0.444;2022-10-16T00:44:45;996.2;;;9.7;82.5
73316;BME280;61545;53.726;-0.444;2022-10-16T00:49:43;996.2;;;9.7;82.5
73316;BME280;61545;53.726;-0.444;2022-10-16T00:54:43;996.1;;;9.7;82.7
73316;BME280;61545;53.726;-0.444;2022-10-16T00:59:43;996.2;;;9.7;82.9
73316;BME280;61545;53.726;-0.444;2022-10-16T01:04:44;996.2;;;9.7;83.2
73316;BME280;61545;53.726;-0.444;2022-10-16T01:09:49;996.4;;;9.7;83.7
73316;BME280;61545;53.726;-0.444;2022-10-16T01:14:45;996.3;;;9.7;83.8
73316;BME280;61545;53.726;-0.444;2022-10-16T01:19:51;996.3;;;9.7;84.0
73316;BME280;61545;53.726;-0.444;2022-10-16T01:24:44;996.4;;;9.8;84.2
73316;BME280;61545;53.726;-0.444;2022-10-16T01:29:48;996.4;;;9.8;84.1
73316;BME280;61545;53.726;-0.444;2022-10-16T01:34:47;996.4;;;9.8;84.1
73316;BME280;61545;53.726;-0.444;2022-10-16T01:39:45;996.4;;;9.9;83.9
73316;BME280;61545;53.726;-0.444;2022-10-16T01:44:43;996.6;;;9.9;83.9
73316;BME280;61545;53.726;-0.444;2022-10-16T01:49:43;996.6;;;9.9;83.7
73316;BME280;61545;53.726;-0.444;2022-10-16T01:54:43;996.6;;;10.0;83.5
73316;BME280;61545;53.726;-0.444;2022-10-16T01:59:44;996.6;;;10.0;83.2
73316;BME280;61545;53.726;-0.444;2022-10-16T02:04:44;996.5;;;9.9;83.0
73316;BME280;61545;53.726;-0.444;2022-10-16T02:09:43;996.4;;;10.0;82.7
73316;BME280;61545;53.726;-0.444;2022-10-16T02:14:43;996.4;;;10.0;82.0
73316;BME280;61545;53.726;-0.444;2022-10-16T02:19:43;996.4;;;10.0;81.6
73316;BME280;61545;53.726;-0.444;2022-10-16T02:24:47;996.4;;;10.1;81.0
73316;BME280;61545;53.726;-0.444;2022-10-16T02:29:46;996.6;;;10.1;80.8
73316;BME280;61545;53.726;-0.444;2022-10-16T02:34:43;996.6;;;10.2;80.4
73316;BME280;61545;53.726;-0.444;2022-10-16T02:39:43;996.7;;;10.1;80.3
73316;BME280;61545;53.726;-0.444;2022-10-16T02:44:43;996.8;;;10.1;80.2
73316;BME280;61545;53.726;-0.444;2022-10-16T02:49:43;996.9;;;10.0;80.1
73316;BME280;61545;53.726;-0.444;2022-10-16T02:54:43;997.0;;;10.0;80.1
73316;BME280;61545;53.726;-0.444;2022-10-16T02:59:43;997.1;;;10.0;80.0
73316;BME280;61545;53.726;-0.444;2022-10-16T03:04:43;997.2;;;10.0;80.0
73316;BME280;61545;53.726;-0.444;2022-10-16T03:09:43;997.3;;;9.9;80.1
73316;BME280;61545;53.726;-0.444;2022-10-16T03:14:43;997.4;;;10.0;80.2
73316;BME280;61545;53.726;-0.444;2022-10-16T03:19:43;997.5;;;9.9;80.2
73316;BME280;61545;53.726;-0.444;2022-10-16T03:24:43;997.7;;;9.9;80.2
73316;BME280;61545;53.726;-0.444;2022-10-16T03:29:43;997.7;;;9.8;80.2
73316;BME280;61545;53.726;-0.444;2022-10-16T03:34:43;997.9;;;9.7;80.2
73316;BME280;61545;53.726;-0.444;2022-10-16T03:39:43;997.9;;;9.7;80.3
73316;BME280;61545;53.726;-0.444;2022-10-16T03:44:43;998.0;;;9.7;80.4
73316;BME280;61545;53.726;-0.444;2022-10-16T03:49:43;998.1;;;9.6;80.5
73316;BME280;61545;53.726;-0.444;2022-10-16T03:54:43;998.2;;;9.6;80.6
73316;BME280;61545;53.726;-0.444;2022-10-16T03:59:43;998.3;;;9.6;80.6
73316;BME280;61545;53.726;-0.444;2022-10-16T04:04:43;998.5;;;9.5;80.7
73316;BME280;61545;53.726;-0.444;2022-10-16T04:09:43;998.7;;;9.5;80.8
73316;BME280;61545;53.726;-0.444;2022-10-16T04:14:43;998.8;;;9.4;80.9
73316;BME280;61545;53.726;-0.444;2022-10-16T04:19:43;998.8;;;9.4;81.0
73316;BME280;61545;53.726;-0.444;2022-10-16T04:24:43;999.1;;;9.4;81.1
73316;BME280;61545;53.726;-0.444;2022-10-16T04:29:43;999.2;;;9.3;81.2
73316;BME280;61545;53.726;-0.444;2022-10-16T04:34:43;999.4;;;9.3;81.3
73316;BME280;61545;53.726;-0.444;2022-10-16T04:39:43;999.6;;;9.3;81.5
73316;BME280;61545;53.726;-0.444;2022-10-16T04:44:43;999.7;;;9.2;81.6
73316;BME280;61545;53.726;-0.444;2022-10-16T04:49:43;999.8;;;9.1;81.7
73316;BME280;61545;53.726;-0.444;2022-10-16T04:54:43;999.9;;;9.2;81.8
73316;BME280;61545;53.726;-0.444;2022-10-16T04:59:43;1000.1;;;9.0;81.9
73316;BME280;61545;53.726;-0.444;2022-10-16T05:04:43;1000.1;;;9.0;82.0
73316;BME280;61545;53.726;-0.444;2022-10-16T05:09:43;1000.2;;;9.0;82.3
73316;BME280;61545;53.726;-0.444;2022-10-16T05:14:43;1000.2;;;9.0;82.4
73316;BME280;61545;53.726;-0.444;2022-10-16T05:19:43;1000.3;;;9.0;82.6
73316;BME280;61545;53.726;-0.444;2022-10-16T05:24:43;1000.5;;;9.0;82.7
73316;BME280;61545;53.726;-0.444;2022-10-16T05:29:43;1000.6;;;9.0;82.8
73316;BME280;61545;53.726;-0.444;2022-10-16T05:34:43;1000.7;;;8.9;82.8
73316;BME280;61545;53.726;-0.444;2022-10-16T05:39:43;1000.7;;;8.9;82.8
73316;BME280;61545;53.726;-0.444;2022-10-16T05:44:43;1000.9;;;8.9;82.9
73316;BME280;61545;53.726;-0.444;2022-10-16T05:49:43;1001.1;;;8.7;83.0
73316;BME280;61545;53.726;-0.444;2022-10-16T05:54:43;1001.2;;;8.8;83.1
73316;BME280;61545;53.726;-0.444;2022-10-16T05:59:43;1001.4;;;8.6;83.3
73316;BME280;61545;53.726;-0.444;2022-10-16T06:04:43;1001.4;;;8.7;83.5
73316;BME280;61545;53.726;-0.444;2022-10-16T06:09:43;1001.5;;;8.7;83.5
73316;BME280;61545;53.726;-0.444;2022-10-16T06:14:43;1001.5;;;8.5;83.4
73316;BME280;61545;53.726;-0.444;2022-10-16T06:19:43;1001.5;;;8.6;83.2
73316;BME280;61545;53.726;-0.444;2022-10-16T06:24:43;1001.6;;;8.5;83.1
73316;BME280;61545;53.726;-0.444;2022-10-16T06:29:43;1001.6;;;8.6;83.0
73316;BME280;61545;53.726;-0.444;2022-10-16T06:34:43;1001.9;;;8.6;82.8
73316;BME280;61545;53.726;-0.444;2022-10-16T06:39:43;1001.9;;;8.5;82.8
73316;BME280;61545;53.726;-0.444;2022-10-16T06:44:43;1002.1;;;8.5;82.8
73316;BME280;61545;53.726;-0.444;2022-10-16T06:49:43;1002.3;;;8.6;82.9
73316;BME280;61545;53.726;-0.444;2022-10-16T06:54:43;1002.4;;;8.6;83.0
73316;BME280;61545;53.726;-0.444;2022-10-16T06:59:43;1002.6;;;8.6;83.0
73316;BME280;61545;53.726;-0.444;2022-10-16T07:04:43;1002.7;;;8.6;83.1
73316;BME280;61545;53.726;-0.444;2022-10-16T07:09:43;1002.7;;;8.6;83.2
73316;BME280;61545;53.726;-0.444;2022-10-16T07:14:43;1002.9;;;8.6;83.4
73316;BME280;61545;53.726;-0.444;2022-10-16T07:19:43;1002.9;;;8.6;83.4
73316;BME280;61545;53.726;-0.444;2022-10-16T07:24:43;1003.0;;;8.6;83.3
73316;BME280;61545;53.726;-0.444;2022-10-16T07:29:43;1003.2;;;8.7;82.9
73316;BME280;61545;53.726;-0.444;2022-10-16T07:34:43;1003.2;;;8.7;82.5
73316;BME280;61545;53.726;-0.444;2022-10-16T07:39:43;1003.4;;;8.8;81.9
73316;BME280;61545;53.726;-0.444;2022-10-16T07:44:43;1003.5;;;8.8;81.5
73316;BME280;61545;53.726;-0.444;2022-10-16T07:49:43;1003.6;;;9.2;81.1
73316;BME280;61545;53.726;-0.444;2022-10-16T07:54:43;1003.8;;;9.9;80.7
73316;BME280;61545;53.726;-0.444;2022-10-16T07:59:43;1003.9;;;11.9;80.3
73316;BME280;61545;53.726;-0.444;2022-10-16T08:04:43;1004.1;;;11.5;79.6
73316;BME280;61545;53.726;-0.444;2022-10-16T08:09:43;1004.1;;;12.3;79.5
73316;BME280;61545;53.726;-0.444;2022-10-16T08:14:43;1004.3;;;11.4;79.0
73316;BME280;61545;53.726;-0.444;2022-10-16T08:19:44;1004.4;;;12.2;78.7
73316;BME280;61545;53.726;-0.444;2022-10-16T08:24:43;1004.6;;;12.2;78.6
73316;BME280;61545;53.726;-0.444;2022-10-16T08:29:43;1004.7;;;11.9;78.2
73316;BME280;61545;53.726;-0.444;2022-10-16T08:34:43;1004.7;;;11.5;77.4
73316;BME280;61545;53.726;-0.444;2022-10-16T08:39:43;1004.7;;;11.5;76.4
73316;BME280;61545;53.726;-0.444;2022-10-16T08:44:59;1004.8;;;11.8;75.3
73316;BME280;61545;53.726;-0.444;2022-10-16T08:49:47;1004.8;;;12.2;74.3
73316;BME280;61545;53.726;-0.444;2022-10-16T08:54:44;1005.0;;;13.4;73.5
73316;BME280;61545;53.726;-0.444;2022-10-16T08:59:43;1005.0;;;13.5;72.7
73316;BME280;61545;53.726;-0.444;2022-10-16T09:04:49;1005.1;;;13.5;71.8
73316;BME280;61545;53.726;-0.444;2022-10-16T09:09:51;1005.2;;;14.0;71.5
73316;BME280;61545;53.726;-0.444;2022-10-16T09:14:50;1005.2;;;13.8;71.0
73316;BME280;61545;53.726;-0.444;2022-10-16T09:19:45;1005.1;;;14.1;70.8
73316;BME280;61545;53.726;-0.444;2022-10-16T09:24:43;1005.2;;;14.0;70.3
73316;BME280;61545;53.726;-0.444;2022-10-16T09:29:43;1005.3;;;14.2;70.0
73316;BME280;61545;53.726;-0.444;2022-10-16T09:34:45;1005.4;;;14.0;69.8
73316;BME280;61545;53.726;-0.444;2022-10-16T09:39:44;1005.4;;;14.2;69.5
73316;BME280;61545;53.726;-0.444;2022-10-16T09:44:46;1005.3;;;14.2;69.3
73316;BME280;61545;53.726;-0.444;2022-10-16T09:49:50;1005.5;;;14.0;69.1
73316;BME280;61545;53.726;-0.444;2022-10-16T09:54:49;1005.5;;;14.0;68.9
73316;BME280;61545;53.726;-0.444;2022-10-16T09:59:46;1005.5;;;13.2;68.7
73316;BME280;61545;53.726;-0.444;2022-10-16T10:04:47;1005.6;;;13.6;69.1
73316;BME280;61545;53.726;-0.444;2022-10-16T10:09:43;1005.6;;;13.4;68.8
73316;BME280;61545;53.726;-0.444;2022-10-16T10:14:44;1005.8;;;13.7;68.9
73316;BME280;61545;53.726;-0.444;2022-10-16T10:19:47;1005.8;;;14.0;68.9
73316;BME280;61545;53.726;-0.444;2022-10-16T10:24:43;1005.8;;;13.7;68.4
73316;BME280;61545;53.726;-0.444;2022-10-16T10:29:47;1005.8;;;13.5;67.9
73316;BME280;61545;53.726;-0.444;2022-10-16T10:34:52;1005.8;;;13.5;67.6
73316;BME280;61545;53.726;-0.444;2022-10-16T10:39:44;1005.8;;;13.5;67.5
73316;BME280;61545;53.726;-0.444;2022-10-16T10:44:55;1005.8;;;13.4;67.2
73316;BME280;61545;53.726;-0.444;2022-10-16T10:49:49;1005.9;;;13.0;66.7
73316;BME280;61545;53.726;-0.444;2022-10-16T10:54:47;1006.0;;;12.9;66.3
73316;BME280;61545;53.726;-0.444;2022-10-16T10:59:52;1005.9;;;12.7;65.9
73316;BME280;61545;53.726;-0.444;2022-10-16T11:04:53;1005.9;;;12.7;65.6
73316;BME280;61545;53.726;-0.444;2022-10-16T11:09:44;1006.0;;;12.9;65.4
73316;BME280;61545;53.726;-0.444;2022-10-16T11:14:46;1006.1;;;13.2;65.1
73316;BME280;61545;53.726;-0.444;2022-10-16T11:19:45;1006.5;;;12.9;64.9
73316;BME280;61545;53.726;-0.444;2022-10-16T11:24:45;1006.6;;;13.0;64.7
73316;BME280;61545;53.726;-0.444;2022-10-16T11:29:46;1006.7;;;13.1;64.6
73316;BME280;61545;53.726;-0.444;2022-10-16T11:34:44;1006.8;;;13.2;64.4
73316;BME280;61545;53.726;-0.444;2022-10-16T11:39:43;1007.0;;;13.2;64.3
73316;BME280;61545;53.726;-0.444;2022-10-16T11:44:48;1007.1;;;13.2;64.1
73316;BME280;61545;53.726;-0.444;2022-10-16T11:49:43;1007.1;;;13.1;63.6
73316;BME280;61545;53.726;-0.444;2022-10-16T11:54:45;1007.1;;;13.1;63.2
73316;BME280;61545;53.726;-0.444;2022-10-16T11:59:45;1007.0;;;13.1;63.1
73316;BME280;61545;53.726;-0.444;2022-10-16T12:04:45;1007.0;;;13.3;62.7
73316;BME280;61545;53.726;-0.444;2022-10-16T12:09:43;1007.1;;;13.2;62.7
73316;BME280;61545;53.726;-0.444;2022-10-16T12:14:43;1007.0;;;13.2;62.3
73316;BME280;61545;53.726;-0.444;2022-10-16T12:19:43;1007.1;;;13.4;61.7
73316;BME280;61545;53.726;-0.444;2022-10-16T12:24:43;1006.9;;;13.4;61.1
73316;BME280;61545;53.726;-0.444;2022-10-16T12:29:43;1006.9;;;13.5;60.9
73316;BME280;61545;53.726;-0.444;2022-10-16T12:34:43;1006.9;;;13.5;60.7
73316;BME280;61545;53.726;-0.444;2022-10-16T12:39:43;1006.8;;;13.8;60.4
73316;BME280;61545;53.726;-0.444;2022-10-16T12:44:43;1006.8;;;13.8;60.3
73316;BME280;61545;53.726;-0.444;2022-10-16T12:49:52;1006.9;;;13.9;60.1
73316;BME280;61545;53.726;-0.444;2022-10-16T12:54:43;1006.9;;;13.9;59.8
73316;BME280;61545;53.726;-0.444;2022-10-16T12:59:45;1007.1;;;13.8;59.4
73316;BME280;61545;53.726;-0.444;2022-10-16T13:04:47;1007.1;;;14.0;59.0
73316;BME280;61545;53.726;-0.444;2022-10-16T13:09:49;1007.3;;;13.9;58.9
73316;BME280;61545;53.726;-0.444;2022-10-16T13:14:52;1007.4;;;14.0;58.8
73316;BME280;61545;53.726;-0.444;2022-10-16T13:19:45;1007.5;;;13.5;58.6
73316;BME280;61545;53.726;-0.444;2022-10-16T13:24:51;1007.7;;;13.6;58.8
73316;BME280;61545;53.726;-0.444;2022-10-16T13:29:43;1007.8;;;13.7;58.7
73316;BME280;61545;53.726;-0.444;2022-10-16T13:34:44;1007.7;;;14.0;58.2
73316;BME280;61545;53.726;-0.444;2022-10-16T13:39:43;1007.8;;;14.2;57.7
73316;BME280;61545;53.726;-0.444;2022-10-16T13:44:44;1007.9;;;14.1;57.2
73316;BME280;61545;53.726;-0.444;2022-10-16T13:49:43;1007.9;;;13.9;56.9
73316;BME280;61545;53.726;-0.444;2022-10-16T13:54:43;1007.9;;;13.7;57.0
73316;BME280;61545;53.726;-0.444;2022-10-16T13:59:43;1007.9;;;13.5;57.1
73316;BME280;61545;53.726;-0.444;2022-10-16T14:04:43;1007.8;;;13.5;57.3
73316;BME280;61545;53.726;-0.444;2022-10-16T14:09:47;1007.8;;;13.4;57.2
73316;BME280;61545;53.726;-0.444;2022-10-16T14:14:44;1008.0;;;13.4;57.1
73316;BME280;61545;53.726;-0.444;2022-10-16T14:19:45;1008.0;;;13.5;57.0
73316;BME280;61545;53.726;-0.444;2022-10-16T14:24:43;1008.0;;;13.5;57.0
73316;BME280;61545;53.726;-0.444;2022-10-16T14:29:43;1007.9;;;13.5;57.0
73316;BME280;61545;53.726;-0.444;2022-10-16T14:34:52;1008.0;;;13.4;57.2
73316;BME280;61545;53.726;-0.444;2022-10-16T14:39:48;1008.1;;;13.4;57.1
73316;BME280;61545;53.726;-0.444;2022-10-16T14:44:43;1008.2;;;13.3;57.1
73316;BME280;61545;53.726;-0.444;2022-10-16T14:49:43;1008.1;;;13.2;57.2
73316;BME280;61545;53.726;-0.444;2022-10-16T14:54:43;1008.1;;;13.2;57.1
73316;BME280;61545;53.726;-0.444;2022-10-16T14:59:43;1008.2;;;13.3;57.2
73316;BME280;61545;53.726;-0.444;2022-10-16T15:04:43;1008.3;;;13.2;57.2
73316;BME280;61545;53.726;-0.444;2022-10-16T15:09:43;1008.3;;;13.4;57.2
73316;BME280;61545;53.726;-0.444;2022-10-16T15:14:43;1008.4;;;13.4;57.4
73316;BME280;61545;53.726;-0.444;2022-10-16T15:19:43;1008.4;;;13.2;57.5
73316;BME280;61545;53.726;-0.444;2022-10-16T15:24:43;1008.4;;;13.0;57.8
73316;BME280;61545;53.726;-0.444;2022-10-16T15:29:43;1008.4;;;13.0;58.2
73316;BME280;61545;53.726;-0.444;2022-10-16T15:34:43;1008.5;;;12.9;58.7
73316;BME280;61545;53.726;-0.444;2022-10-16T15:39:43;1008.6;;;12.9;59.1
73316;BME280;61545;53.726;-0.444;2022-10-16T15:44:43;1008.5;;;12.9;59.6
73316;BME280;61545;53.726;-0.444;2022-10-16T15:49:43;1008.4;;;12.8;60.0
73316;BME280;61545;53.726;-0.444;2022-10-16T15:54:43;1008.4;;;12.7;60.4
73316;BME280;61545;53.726;-0.444;2022-10-16T15:59:43;1008.3;;;12.7;60.7
73316;BME280;61545;53.726;-0.444;2022-10-16T16:04:43;1008.3;;;12.6;61.1
73316;BME280;61545;53.726;-0.444;2022-10-16T16:09:43;1008.1;;;12.5;61.4
73316;BME280;61545;53.726;-0.444;2022-10-16T16:14:43;1008.1;;;12.4;61.4
73316;BME280;61545;53.726;-0.444;2022-10-16T16:19:43;1008.2;;;12.4;61.3
73316;BME280;61545;53.726;-0.444;2022-10-16T16:24:43;1008.3;;;12.3;61.5
73316;BME280;61545;53.726;-0.444;2022-10-16T16:29:43;1008.3;;;12.2;61.7
73316;BME280;61545;53.726;-0.444;2022-10-16T16:34:43;1008.3;;;12.1;62.0
73316;BME280;61545;53.726;-0.444;2022-10-16T16:39:43;1008.3;;;12.0;62.4
73316;BME280;61545;53.726;-0.444;2022-10-16T16:44:43;1008.4;;;12.0;62.9
73316;BME280;61545;53.726;-0.444;2022-10-16T16:49:43;1008.4;;;11.9;63.3
73316;BME280;61545;53.726;-0.444;2022-10-16T16:54:43;1008.4;;;11.9;63.8
73316;BME280;61545;53.726;-0.444;2022-10-16T16:59:43;1008.4;;;11.9;64.2
73316;BME280;61545;53.726;-0.444;2022-10-16T17:04:43;1008.3;;;11.7;64.7
73316;BME280;61545;53.726;-0.444;2022-10-16T17:09:43;1008.3;;;11.6;65.2
73316;BME280;61545;53.726;-0.444;2022-10-16T17:14:43;1008.4;;;11.5;65.9
73316;BME280;61545;53.726;-0.444;2022-10-16T17:19:43;1008.3;;;11.5;66.4
73316;BME280;61545;53.726;-0.444;2022-10-16T17:24:43;1008.4;;;11.5;66.8
73316;BME280;61545;53.726;-0.444;2022-10-16T17:29:43;1008.5;;;11.4;67.2
73316;BME280;61545;53.726;-0.444;2022-10-16T17:34:43;1008.4;;;11.3;67.8
73316;BME280;61545;53.726;-0.444;2022-10-16T17:39:43;1008.4;;;11.3;68.5
73316;BME280;61545;53.726;-0.444;2022-10-16T17:44:43;1008.3;;;11.2;68.8
73316;BME280;61545;53.726;-0.444;2022-10-16T17:49:43;1008.3;;;11.2;68.9
73316;BME280;61545;53.726;-0.444;2022-10-16T17:54:43;1008.3;;;11.2;68.8
73316;BME280;61545;53.726;-0.444;2022-10-16T17:59:43;1008.3;;;11.2;68.9
73316;BME280;61545;53.726;-0.444;2022-10-16T18:04:43;1008.1;;;11.1;69.0
73316;BME280;61545;53.726;-0.444;2022-10-16T18:09:43;1008.1;;;11.2;69.5
73316;BME280;61545;53.726;-0.444;2022-10-16T18:14:43;1008.0;;;11.2;70.1
73316;BME280;61545;53.726;-0.444;2022-10-16T18:19:43;1008.0;;;11.1;70.9
73316;BME280;61545;53.726;-0.444;2022-10-16T18:24:43;1008.1;;;11.1;71.3
73316;BME280;61545;53.726;-0.444;2022-10-16T18:29:43;1008.0;;;11.0;71.6
73316;BME280;61545;53.726;-0.444;2022-10-16T18:34:43;1008.0;;;11.0;72.5
73316;BME280;61545;53.726;-0.444;2022-10-16T18:39:45;1007.9;;;10.9;72.7
73316;BME280;61545;53.726;-0.444;2022-10-16T18:44:43;1007.9;;;10.8;73.3
73316;BME280;61545;53.726;-0.444;2022-10-16T18:49:43;1008.0;;;10.8;73.6
73316;BME280;61545;53.726;-0.444;2022-10-16T18:54:43;1007.9;;;10.7;74.1
73316;BME280;61545;53.726;-0.444;2022-10-16T18:59:43;1007.9;;;10.7;74.7
73316;BME280;61545;53.726;-0.444;2022-10-16T19:04:43;1008.1;;;10.7;75.1
73316;BME280;61545;53.726;-0.444;2022-10-16T19:09:43;1008.2;;;10.8;75.0
73316;BME280;61545;53.726;-0.444;2022-10-16T19:14:43;1008.0;;;10.9;74.3
73316;BME280;61545;53.726;-0.444;2022-10-16T19:19:43;1008.0;;;10.9;72.9
73316;BME280;61545;53.726;-0.444;2022-10-16T19:24:43;1007.8;;;10.9;71.7
73316;BME280;61545;53.726;-0.444;2022-10-16T19:29:43;1007.7;;;11.0;70.9
73316;BME280;61545;53.726;-0.444;2022-10-16T19:34:43;1007.7;;;11.0;70.4
73316;BME280;61545;53.726;-0.444;2022-10-16T19:39:43;1007.7;;;11.1;70.4
73316;BME280;61545;53.726;-0.444;2022-10-16T19:44:43;1007.5;;;11.2;70.9
73316;BME280;61545;53.726;-0.444;2022-10-16T19:49:43;1007.4;;;11.3;71.6
73316;BME280;61545;53.726;-0.444;2022-10-16T19:54:43;1007.3;;;11.3;72.3
73316;BME280;61545;53.726;-0.444;2022-10-16T19:59:43;1007.3;;;11.4;73.1
73316;BME280;61545;53.726;-0.444;2022-10-16T20:04:43;1007.2;;;11.4;73.6
73316;BME280;61545;53.726;-0.444;2022-10-16T20:09:43;1007.2;;;11.5;74.4
73316;BME280;61545;53.726;-0.444;2022-10-16T20:14:43;1007.3;;;11.6;75.1
73316;BME280;61545;53.726;-0.444;2022-10-16T20:19:43;1007.4;;;11.6;75.1
73316;BME280;61545;53.726;-0.444;2022-10-16T20:24:43;1007.4;;;11.7;75.4
73316;BME280;61545;53.726;-0.444;2022-10-16T20:29:43;1007.1;;;11.7;75.6
73316;BME280;61545;53.726;-0.444;2022-10-16T20:34:43;1007.1;;;11.6;75.8
73316;BME280;61545;53.726;-0.444;2022-10-16T20:39:43;1007.1;;;11.5;76.5
73316;BME280;61545;53.726;-0.444;2022-10-16T20:44:43;1007.0;;;11.4;77.8
73316;BME280;61545;53.726;-0.444;2022-10-16T20:49:45;1006.9;;;11.4;78.6
73316;BME280;61545;53.726;-0.444;2022-10-16T20:54:43;1007.0;;;11.4;79.6
73316;BME280;61545;53.726;-0.444;2022-10-16T20:59:43;1006.9;;;11.4;80.1
73316;BME280;61545;53.726;-0.444;2022-10-16T21:04:45;1006.8;;;11.4;80.7
73316;BME280;61545;53.726;-0.444;2022-10-16T21:09:43;1006.7;;;11.4;81.5
73316;BME280;61545;53.726;-0.444;2022-10-16T21:14:43;1006.6;;;11.4;82.8
73316;BME280;61545;53.726;-0.444;2022-10-16T21:19:43;1006.5;;;11.4;84.3
73316;BME280;61545;53.726;-0.444;2022-10-16T21:24:43;1006.5;;;11.4;86.0
73316;BME280;61545;53.726;-0.444;2022-10-16T21:29:43;1006.4;;;11.4;87.7
73316;BME280;61545;53.726;-0.444;2022-10-16T21:34:43;1006.3;;;11.4;87.8
73316;BME280;61545;53.726;-0.444;2022-10-16T21:39:43;1006.3;;;11.4;88.3
73316;BME280;61545;53.726;-0.444;2022-10-16T21:44:43;1006.2;;;11.5;88.6
73316;BME280;61545;53.726;-0.444;2022-10-16T21:49:43;1006.1;;;11.5;89.6
73316;BME280;61545;53.726;-0.444;2022-10-16T21:54:43;1005.9;;;11.5;90.1
73316;BME280;61545;53.726;-0.444;2022-10-16T21:59:43;1005.8;;;11.5;90.7
73316;BME280;61545;53.726;-0.444;2022-10-16T22:04:43;1005.4;;;11.5;92.7
73316;BME280;61545;53.726;-0.444;2022-10-16T22:09:43;1005.4;;;11.5;93.6
73316;BME280;61545;53.726;-0.444;2022-10-16T22:14:43;1005.1;;;11.5;97.4
73316;BME280;61545;53.726;-0.444;2022-10-16T22:19:43;1005.1;;;11.6;98.7
73316;BME280;61545;53.726;-0.444;2022-10-16T22:24:43;1005.1;;;11.5;100.0
73316;BME280;61545;53.726;-0.444;2022-10-16T22:29:43;1005.1;;;11.6;100.0
73316;BME280;61545;53.726;-0.444;2022-10-16T22:34:43;1005.1;;;11.7;100.0
73316;BME280;61545;53.726;-0.444;2022-10-16T22:39:43;1004.9;;;11.7;100.0
73316;BME280;61545;53.726;-0.444;2022-10-16T22:44:43;1004.8;;;11.8;100.0
73316;BME280;61545;53.726;-0.444;2022-10-16T22:49:43;1004.7;;;11.8;100.0
73316;BME280;61545;53.726;-0.444;2022-10-16T22:54:43;1004.7;;;11.9;100.0
73316;BME280;61545;53.726;-0.444;2022-10-16T22:59:43;1004.6;;;12.0;100.0
73316;BME280;61545;53.726;-0.444;2022-10-16T23:04:43;1004.7;;;12.0;100.0
73316;BME280;61545;53.726;-0.444;2022-10-16T23:09:43;1004.5;;;12.0;100.0
73316;BME280;61545;53.726;-0.444;2022-10-16T23:14:43;1004.5;;;12.1;100.0
73316;BME280;61545;53.726;-0.444;2022-10-16T23:19:43;1004.4;;;12.2;100.0
73316;BME280;61545;53.726;-0.444;2022-10-16T23:24:43;1004.1;;;12.2;100.0
73316;BME280;61545;53.726;-0.444;2022-10-16T23:29:43;1004.1;;;12.3;100.0
73316;BME280;61545;53.726;-0.444;2022-10-16T23:34:43;1004.0;;;12.4;100.0
73316;BME280;61545;53.726;-0.444;2022-10-16T23:39:43;1004.0;;;12.4;100.0
73316;BME280;61545;53.726;-0.444;2022-10-16T23:44:43;1004.1;;;12.4;100.0
73316;BME280;61545;53.726;-0.444;2022-10-16T23:49:43;1004.1;;;12.4;100.0
73316;BME280;61545;53.726;-0.444;2022-10-16T23:54:43;1003.9;;;12.5;100.0
73316;BME280;61545;53.726;-0.444;2022-10-16T23:59:43;1004.0;;;12.6;100.0
